Impacts TAF Board
For situational awareness. Not to be used for flight planning purposes.
IDs:

KGJT - Grand Junction Rgnl, CO, US

Issued at 0530 UTC 15 Jul 2020
Updated at 1125 UTC 15 Jul 2020
Potential Impact None Slight Moderate High
Time1053Z 15/12Z 15/13Z 15/14Z 15/15Z 15/16Z 15/17Z 15/18Z 15/19Z 15/20Z 15/21Z 15/22Z 15/23Z 16/00Z>>
Type OBS PRVL PRVL PRVL PRVL PRVL PRVL PRVL PRVL PRVL PRVL PRVL PRVL PRVL
VIS 10 >6 >6 >6 >6 >6 >6 >6 >6 >6 >6 >6 >6 >6
CIG -- -- -- -- -- -- -- -- -- -- -- -- -- --
Cover CLR FEW FEW FEW FEW FEW FEW FEW FEW FEW FEW FEW FEW FEW
FltCat VFR VFR VFR VFR VFR VFR VFR VFR VFR VFR VFR VFR VFR VFR
WX -- -- -- -- -- -- -- -- -- -- -- -- -- --
WDir 60 120 120 120 120 120 120 120 260 260 260 260 260 260
WSpd 10 4 4 4 4 4 4 4 9 9 9 9 9 9
WGst -- -- -- -- -- -- -- -- -- -- -- -- -- --
Raw TAF
KGJT 150530Z 1506/1606 02008KT P6SM VCSH SCT080 BKN100
  TEMPO 1506/1509 -RA BKN080
  FM150900 12004KT P6SM FEW250
  FM151900 26009KT P6SM FEW150 FEW250
  FM160200 36005KT P6SM BKN250


Raw METAR
KGJT 151053Z AUTO 06010KT 10SM CLR 23/06 A3005 RMK AO2 SLP092 T02280056
KGJT 150953Z AUTO 06005KT 10SM CLR 24/06 A3004 RMK AO2 SLP084 T02390056
KGJT 150853Z AUTO 05010KT 10SM CLR 25/06 A3002 RMK AO2 SLP078 T02500061 51009

METAR Board
Radar Display
Forecast Discussion
For situational awareness. Not to be used for flight planning purposes.